Time;durP1;ratioP1;P1;durP2;ratioP2;P2;SDS_P1;SDS_P2;PMS_P1;PMS_P2;Temp;Humidity;BMP_temperature;BMP_pressure;BME280_temperature;BME280_humidity;BME280_pressure;Samples;Min_cycle;Max_cycle;Signal;HPM_P1;HPM_P2
2022/05/07 00:01:33;;;;;;;1.00;1.00;;;;;;;;;;1874626;75;26388;-44
2022/05/07 00:04:00;;;;;;;1.22;1.17;;;;;;;;;;1877023;76;26244;-44
2022/05/07 00:06:27;;;;;;;1.05;1.05;;;;;;;;;;1879730;76;26263;-43
2022/05/07 00:08:54;;;;;;;1.00;1.00;;;;;;;;;;1868225;76;26765;-42
2022/05/07 00:11:22;;;;;;;1.40;1.30;;;;;;;;;;1862478;76;26265;-46
2022/05/07 00:13:50;;;;;;;1.07;1.00;;;;;;;;;;1855447;76;26229;-42
2022/05/07 00:19:02;;;;;;;2.47;1.00;;;;;;;;;;1858912;76;26338;-45
2022/05/07 00:21:30;;;;;;;0.90;0.90;;;;;;;;;;1866060;76;26328;-46
2022/05/07 00:23:57;;;;;;;0.98;0.98;;;;;;;;;;1884165;75;26247;-47
2022/05/07 00:26:24;;;;;;;1.00;1.00;;;;;;;;;;1861290;76;26703;-44
2022/05/07 00:28:52;;;;;;;0.93;0.93;;;;;;;;;;1878288;76;26258;-42
2022/05/07 00:31:19;;;;;;;0.90;0.90;;;;;;;;;;1862754;76;26234;-44
2022/05/07 00:33:47;;;;;;;0.90;0.90;;;;;;;;;;1855956;76;26312;-48
2022/05/07 00:36:14;;;;;;;1.00;1.00;;;;;;;;;;1856562;75;26339;-42
2022/05/07 00:38:42;;;;;;;1.12;1.00;;;;;;;;;;1872877;76;26246;-49
2022/05/07 00:41:09;;;;;;;1.00;1.00;;;;;;;;;;1866881;76;26277;-43
2022/05/07 00:43:37;;;;;;;1.50;0.98;;;;;;;;;;1873435;76;26238;-46
2022/05/07 00:46:05;;;;;;;1.15;1.12;;;;;;;;;;1873772;75;26255;-43
2022/05/07 00:48:34;;;;;;;0.90;0.90;;;;;;;;;;1861447;76;25305;-43
2022/05/07 00:53:47;;;;;;;0.90;0.90;;;;;;;;;;1870825;75;26267;-43
2022/05/07 00:56:15;;;;;;;1.60;1.00;;;;;;;;;;1870311;75;26729;-44
2022/05/07 00:58:42;;;;;;;0.80;0.80;;;;;;;;;;1878415;76;26227;-44
2022/05/07 01:01:10;;;;;;;0.80;0.80;;;;;;;;;;1873876;76;26309;-46
2022/05/07 01:03:38;;;;;;;0.88;0.88;;;;;;;;;;1880460;76;26262;-43
2022/05/07 01:06:05;;;;;;;0.80;0.80;;;;;;;;;;1875607;75;26301;-45
2022/05/07 01:08:33;;;;;;;0.70;0.70;;;;;;;;;;1871803;75;26252;-44
2022/05/07 01:11:01;;;;;;;0.90;0.90;;;;;;;;;;1858891;76;26368;-49
2022/05/07 01:13:28;;;;;;;0.90;0.90;;;;;;;;;;1876192;76;26263;-46
2022/05/07 01:15:56;;;;;;;0.82;0.82;;;;;;;;;;1878252;76;26501;-43
2022/05/07 01:18:24;;;;;;;0.80;0.80;;;;;;;;;;1876134;75;26232;-46
2022/05/07 01:20:53;;;;;;;0.70;0.70;;;;;;;;;;1876841;75;25327;-47
2022/05/07 01:23:20;;;;;;;1.00;1.00;;;;;;;;;;1878671;76;26247;-47
2022/05/07 01:25:48;;;;;;;0.68;0.68;;;;;;;;;;1878951;75;26325;-49
2022/05/07 01:28:15;;;;;;;0.90;0.90;;;;;;;;;;1863850;76;26793;-42
2022/05/07 01:30:42;;;;;;;1.02;0.98;;;;;;;;;;1851604;75;26272;-45
2022/05/07 01:33:09;;;;;;;0.95;0.95;;;;;;;;;;1865333;76;26230;-45
2022/05/07 01:35:37;;;;;;;0.90;0.90;;;;;;;;;;1872295;76;26259;-46
2022/05/07 01:38:05;;;;;;;0.98;0.80;;;;;;;;;;1876943;75;26340;-46
2022/05/07 01:40:32;;;;;;;0.70;0.70;;;;;;;;;;1869982;76;26266;-45
2022/05/07 01:43:00;;;;;;;0.75;0.75;;;;;;;;;;1879568;75;26242;-43
2022/05/07 01:45:27;;;;;;;0.80;0.80;;;;;;;;;;1869105;75;26613;-42
2022/05/07 01:48:09;;;;;;;0.70;0.70;;;;;;;;;;1876751;76;26891;-41
2022/05/07 01:50:39;;;;;;;0.80;0.80;;;;;;;;;;1866960;76;26249;-43
2022/05/07 01:53:08;;;;;;;0.70;0.70;;;;;;;;;;1865255;75;26273;-45
2022/05/07 01:55:35;;;;;;;0.80;0.80;;;;;;;;;;1879433;75;26810;-42
2022/05/07 01:58:03;;;;;;;0.70;0.70;;;;;;;;;;1881693;75;26269;-46
2022/05/07 02:00:31;;;;;;;0.90;0.90;;;;;;;;;;1885715;75;26292;-46
2022/05/07 02:02:59;;;;;;;0.70;0.70;;;;;;;;;;1877627;74;26262;-43
2022/05/07 02:05:27;;;;;;;0.68;0.68;;;;;;;;;;1877620;74;27600;-45
2022/05/07 02:07:55;;;;;;;0.90;0.90;;;;;;;;;;1874775;75;26356;-49
2022/05/07 02:10:23;;;;;;;0.90;0.90;;;;;;;;;;1890696;75;26812;-46
2022/05/07 02:12:50;;;;;;;0.80;0.80;;;;;;;;;;1874769;75;26327;-45
2022/05/07 02:15:18;;;;;;;0.80;0.80;;;;;;;;;;1889314;74;26642;-43
2022/05/07 02:17:46;;;;;;;0.70;0.70;;;;;;;;;;1873897;74;26246;-45
2022/05/07 02:20:13;;;;;;;1.07;0.70;;;;;;;;;;1894592;75;26758;-44
2022/05/07 02:22:40;;;;;;;0.70;0.70;;;;;;;;;;1894445;75;26698;-49
2022/05/07 02:25:08;;;;;;;0.90;0.90;;;;;;;;;;1884935;75;26281;-42
2022/05/07 02:27:36;;;;;;;0.93;0.80;;;;;;;;;;1879308;75;26749;-45
2022/05/07 02:30:04;;;;;;;0.80;0.80;;;;;;;;;;1894761;75;26935;-42
2022/05/07 02:32:31;;;;;;;0.90;0.90;;;;;;;;;;1893921;75;26326;-43
2022/05/07 02:34:58;;;;;;;0.65;0.65;;;;;;;;;;1885483;75;26851;-45
2022/05/07 02:37:26;;;;;;;0.70;0.70;;;;;;;;;;1877262;75;26805;-46
2022/05/07 02:39:53;;;;;;;0.70;0.70;;;;;;;;;;1879657;74;26700;-46
2022/05/07 02:42:44;;;;;;;0.60;0.60;;;;;;;;;;1882024;75;26362;-45
2022/05/07 02:45:08;;;;;;;0.57;0.57;;;;;;;;;;1887435;75;26419;-46
2022/05/07 02:47:36;;;;;;;0.80;0.80;;;;;;;;;;1878158;75;26352;-45
2022/05/07 02:50:05;;;;;;;0.80;0.80;;;;;;;;;;1894488;74;26231;-43
2022/05/07 02:52:35;;;;;;;0.70;0.70;;;;;;;;;;1893088;75;26265;-46
2022/05/07 02:55:03;;;;;;;0.80;0.80;;;;;;;;;;1865016;75;26351;-45
2022/05/07 02:57:31;;;;;;;0.90;0.80;;;;;;;;;;1885438;75;26346;-44
2022/05/07 02:59:58;;;;;;;0.72;0.72;;;;;;;;;;1889302;75;26214;-42
2022/05/07 03:02:26;;;;;;;0.78;0.78;;;;;;;;;;1905247;74;26282;-43
2022/05/07 03:04:53;;;;;;;0.70;0.70;;;;;;;;;;1893981;75;26605;-42
2022/05/07 03:07:21;;;;;;;0.80;0.80;;;;;;;;;;1895233;75;26280;-44
2022/05/07 03:09:48;;;;;;;0.70;0.70;;;;;;;;;;1890134;75;26415;-45
2022/05/07 03:12:15;;;;;;;0.80;0.80;;;;;;;;;;1895588;74;26715;-46
2022/05/07 03:14:42;;;;;;;0.82;0.82;;;;;;;;;;1895711;74;26525;-46
2022/05/07 03:17:10;;;;;;;0.72;0.72;;;;;;;;;;1886209;75;26243;-42
2022/05/07 03:19:37;;;;;;;0.72;0.72;;;;;;;;;;1873906;74;26316;-45
2022/05/07 03:22:05;;;;;;;0.60;0.60;;;;;;;;;;1893372;75;26870;-45
2022/05/07 03:24:32;;;;;;;2.62;0.82;;;;;;;;;;1892304;75;26230;-44
2022/05/07 03:27:00;;;;;;;0.70;0.70;;;;;;;;;;1893743;75;26254;-46
2022/05/07 03:29:27;;;;;;;0.70;0.70;;;;;;;;;;1891683;75;26886;-48
2022/05/07 03:31:55;;;;;;;0.70;0.70;;;;;;;;;;1895415;75;26250;-49
2022/05/07 03:34:22;;;;;;;0.80;0.80;;;;;;;;;;1891389;74;26274;-46
2022/05/07 03:36:50;;;;;;;0.80;0.80;;;;;;;;;;1876569;75;26266;-49
2022/05/07 03:39:18;;;;;;;0.70;0.70;;;;;;;;;;1890437;75;26762;-44
2022/05/07 03:41:45;;;;;;;0.72;0.72;;;;;;;;;;1895487;75;26764;-46
2022/05/07 03:44:12;;;;;;;0.80;0.80;;;;;;;;;;1876996;75;26292;-42
2022/05/07 03:46:40;;;;;;;0.70;0.70;;;;;;;;;;1872811;74;26591;-46
2022/05/07 03:49:07;;;;;;;0.60;0.60;;;;;;;;;;1888037;75;26311;-44
2022/05/07 03:53:29;;;;;;;0.80;0.80;;;;;;;;;;1888896;75;26222;-44
2022/05/07 03:54:03;;;;;;;0.70;0.70;;;;;;;;;;1887086;75;26799;-45
2022/05/07 03:56:31;;;;;;;0.65;0.65;;;;;;;;;;1894036;75;26234;-42
2022/05/07 03:58:58;;;;;;;0.70;0.70;;;;;;;;;;1874361;75;26254;-43
2022/05/07 04:01:25;;;;;;;0.70;0.70;;;;;;;;;;1879062;76;26234;-43
2022/05/07 04:03:53;;;;;;;0.80;0.80;;;;;;;;;;1851472;76;26731;-46
2022/05/07 04:06:20;;;;;;;0.65;0.65;;;;;;;;;;1878266;76;26509;-49
2022/05/07 04:08:47;;;;;;;0.70;0.70;;;;;;;;;;1870332;76;26238;-42
2022/05/07 04:11:14;;;;;;;0.80;0.80;;;;;;;;;;1873244;76;26275;-46
2022/05/07 04:13:42;;;;;;;0.80;0.80;;;;;;;;;;1879025;76;26281;-44
2022/05/07 04:16:09;;;;;;;0.80;0.80;;;;;;;;;;1874692;75;26243;-43
2022/05/07 04:18:36;;;;;;;0.80;0.80;;;;;;;;;;1876293;76;26279;-45
2022/05/07 04:21:04;;;;;;;0.75;0.75;;;;;;;;;;1875476;76;26879;-45
2022/05/07 04:23:31;;;;;;;1.27;0.80;;;;;;;;;;1877728;76;26324;-45
2022/05/07 04:25:58;;;;;;;0.80;0.80;;;;;;;;;;1873953;75;26344;-45
2022/05/07 04:28:26;;;;;;;0.80;0.80;;;;;;;;;;1852219;76;26308;-46
2022/05/07 04:30:53;;;;;;;0.60;0.60;;;;;;;;;;1880237;75;26541;-44
2022/05/07 04:33:20;;;;;;;0.90;0.90;;;;;;;;;;1878084;76;26305;-42
2022/05/07 04:35:49;;;;;;;0.75;0.70;;;;;;;;;;1855643;76;26255;-44
2022/05/07 04:38:16;;;;;;;0.98;0.98;;;;;;;;;;1857678;75;26685;-43
2022/05/07 04:40:44;;;;;;;0.90;0.90;;;;;;;;;;1880141;75;26320;-45
2022/05/07 04:43:11;;;;;;;0.80;0.80;;;;;;;;;;1883546;75;26253;-42
2022/05/07 04:45:38;;;;;;;0.70;0.70;;;;;;;;;;1877955;75;26599;-42
2022/05/07 04:48:06;;;;;;;0.93;0.88;;;;;;;;;;1872897;76;26336;-46
2022/05/07 04:50:33;;;;;;;0.70;0.70;;;;;;;;;;1873537;76;26660;-43
2022/05/07 04:53:01;;;;;;;0.93;0.93;;;;;;;;;;1875455;75;27329;-45
2022/05/07 04:55:29;;;;;;;0.70;0.70;;;;;;;;;;1875425;76;26331;-43
2022/05/07 04:57:56;;;;;;;0.70;0.70;;;;;;;;;;1886401;75;26336;-42
2022/05/07 05:00:24;;;;;;;0.80;0.80;;;;;;;;;;1890173;75;26246;-47
2022/05/07 05:02:51;;;;;;;0.80;0.80;;;;;;;;;;1890444;75;27532;-46
2022/05/07 05:05:18;;;;;;;0.60;0.60;;;;;;;;;;1889311;74;26686;-43
2022/05/07 05:07:46;;;;;;;0.70;0.70;;;;;;;;;;1886851;75;26328;-42
2022/05/07 05:10:13;;;;;;;0.60;0.60;;;;;;;;;;1885289;75;26270;-45
2022/05/07 05:12:40;;;;;;;0.75;0.70;;;;;;;;;;1886703;75;26237;-46
2022/05/07 05:15:09;;;;;;;0.80;0.80;;;;;;;;;;1890406;74;26258;-43
2022/05/07 05:17:37;;;;;;;0.90;0.90;;;;;;;;;;1890073;74;26305;-45
2022/05/07 05:20:05;;;;;;;0.70;0.70;;;;;;;;;;1883369;75;26848;-45
2022/05/07 05:22:32;;;;;;;0.95;0.95;;;;;;;;;;1893295;75;26316;-46
2022/05/07 05:24:59;;;;;;;0.80;0.80;;;;;;;;;;1872336;75;26247;-47
2022/05/07 05:27:27;;;;;;;0.82;0.82;;;;;;;;;;1894057;75;26353;-47
2022/05/07 05:29:54;;;;;;;1.87;0.80;;;;;;;;;;1891054;75;26856;-43
2022/05/07 05:32:21;;;;;;;0.80;0.80;;;;;;;;;;1891136;75;26697;-42
2022/05/07 05:34:52;;;;;;;0.98;0.98;;;;;;;;;;1885467;75;26726;-46
2022/05/07 05:37:19;;;;;;;2.30;0.90;;;;;;;;;;1885691;74;26278;-45
2022/05/07 05:39:46;;;;;;;3.15;0.80;;;;;;;;;;1891069;75;26288;-43
2022/05/07 05:42:14;;;;;;;0.80;0.80;;;;;;;;;;1887439;75;26246;-43
2022/05/07 05:44:42;;;;;;;1.92;0.88;;;;;;;;;;1889799;75;26243;-45
2022/05/07 05:47:10;;;;;;;1.17;0.80;;;;;;;;;;1890959;74;26815;-41
2022/05/07 05:49:37;;;;;;;0.80;0.80;;;;;;;;;;1888851;75;26253;-45
2022/05/07 05:52:05;;;;;;;0.85;0.80;;;;;;;;;;1887464;75;26292;-44
2022/05/07 05:54:33;;;;;;;0.93;0.93;;;;;;;;;;1892973;75;26787;-44
2022/05/07 05:57:01;;;;;;;1.20;1.00;;;;;;;;;;1894272;75;26258;-42
2022/05/07 05:59:28;;;;;;;1.77;1.00;;;;;;;;;;1866895;75;26547;-43
2022/05/07 06:01:56;;;;;;;0.90;0.90;;;;;;;;;;1874000;76;26320;-48
2022/05/07 06:04:23;;;;;;;1.20;1.05;;;;;;;;;;1879429;76;26285;-47
2022/05/07 06:06:50;;;;;;;2.55;1.17;;;;;;;;;;1879329;76;26188;-46
2022/05/07 06:09:18;;;;;;;3.40;1.25;;;;;;;;;;1867618;76;26289;-45
2022/05/07 06:11:45;;;;;;;3.05;1.30;;;;;;;;;;1872480;75;26303;-46
2022/05/07 06:14:12;;;;;;;1.35;0.98;;;;;;;;;;1879099;76;26231;-43
2022/05/07 06:16:40;;;;;;;2.47;1.20;;;;;;;;;;1864837;75;26252;-43
2022/05/07 06:19:07;;;;;;;2.50;1.20;;;;;;;;;;1875254;75;26277;-47
2022/05/07 06:21:34;;;;;;;1.12;1.02;;;;;;;;;;1873841;76;26682;-48
2022/05/07 06:29:33;;;;;;;1.57;1.00;;;;;;;;;;1876471;76;26310;-43
2022/05/07 06:32:00;;;;;;;5.90;1.07;;;;;;;;;;1876251;76;26254;-44
2022/05/07 06:34:27;;;;;;;2.02;1.25;;;;;;;;;;1876342;76;26266;-47
2022/05/07 06:36:57;;;;;;;1.77;1.37;;;;;;;;;;1871651;75;26349;-44
2022/05/07 06:39:24;;;;;;;3.55;1.20;;;;;;;;;;1880296;75;26298;-43
2022/05/07 06:41:51;;;;;;;4.10;0.93;;;;;;;;;;1872102;75;27460;-47
2022/05/07 06:44:19;;;;;;;2.55;1.22;;;;;;;;;;1865853;75;26246;-42
2022/05/07 06:46:46;;;;;;;3.80;1.40;;;;;;;;;;1870180;75;26315;-47
2022/05/07 06:49:17;;;;;;;4.10;1.20;;;;;;;;;;1879320;75;26255;-47
2022/05/07 06:51:43;;;;;;;3.55;1.30;;;;;;;;;;1866906;76;26297;-47
2022/05/07 06:54:10;;;;;;;3.95;1.47;;;;;;;;;;1874729;76;26739;-44
2022/05/07 06:56:37;;;;;;;5.65;1.40;;;;;;;;;;1890807;75;26836;-43
2022/05/07 06:59:04;;;;;;;2.20;1.15;;;;;;;;;;1875617;75;27402;-43
2022/05/07 07:01:32;;;;;;;2.02;1.20;;;;;;;;;;1867259;76;26305;-44
2022/05/07 07:03:59;;;;;;;9.60;1.65;;;;;;;;;;1870907;76;26255;-45
2022/05/07 07:06:27;;;;;;;6.08;1.57;;;;;;;;;;1868307;76;26278;-42
2022/05/07 07:08:56;;;;;;;2.02;1.27;;;;;;;;;;1873543;75;27161;-43
2022/05/07 07:11:25;;;;;;;2.27;1.42;;;;;;;;;;1880197;76;26239;-46
2022/05/07 07:13:52;;;;;;;1.87;1.30;;;;;;;;;;1880086;76;26279;-46
2022/05/07 07:16:19;;;;;;;5.70;1.30;;;;;;;;;;1867002;76;26358;-45
2022/05/07 07:18:46;;;;;;;6.55;1.62;;;;;;;;;;1876546;75;26262;-44
2022/05/07 07:21:14;;;;;;;3.92;1.25;;;;;;;;;;1872815;76;26265;-43
2022/05/07 07:23:41;;;;;;;2.22;1.12;;;;;;;;;;1857017;76;26262;-42
2022/05/07 07:26:08;;;;;;;2.30;1.10;;;;;;;;;;1879867;76;26235;-44
2022/05/07 07:28:36;;;;;;;2.02;1.20;;;;;;;;;;1879609;76;26248;-44
2022/05/07 07:31:04;;;;;;;3.25;1.20;;;;;;;;;;1871990;76;26305;-46
2022/05/07 07:33:31;;;;;;;1.12;1.00;;;;;;;;;;1860627;76;26707;-44
2022/05/07 07:35:59;;;;;;;1.82;1.00;;;;;;;;;;1868220;76;26340;-45
2022/05/07 07:38:26;;;;;;;2.12;1.10;;;;;;;;;;1872916;76;26347;-45
2022/05/07 07:40:55;;;;;;;2.65;1.07;;;;;;;;;;1859597;75;26258;-44
2022/05/07 07:43:22;;;;;;;1.75;0.95;;;;;;;;;;1877171;76;26320;-40
2022/05/07 07:48:35;;;;;;;1.20;1.10;;;;;;;;;;1879236;76;26236;-43
2022/05/07 07:51:03;;;;;;;2.10;1.02;;;;;;;;;;1860503;76;26336;-41
2022/05/07 07:53:30;;;;;;;3.72;1.20;;;;;;;;;;1857313;75;26294;-41
2022/05/07 07:55:58;;;;;;;2.77;1.17;;;;;;;;;;1863725;75;26327;-41
2022/05/07 07:58:25;;;;;;;2.72;1.05;;;;;;;;;;1863673;75;26289;-44
2022/05/07 08:00:52;;;;;;;1.07;0.98;;;;;;;;;;1877181;74;26319;-45
2022/05/07 08:03:20;;;;;;;2.08;0.90;;;;;;;;;;1892660;75;26238;-45
2022/05/07 08:05:49;;;;;;;1.00;1.00;;;;;;;;;;1887998;75;26258;-44
2022/05/07 08:13:48;;;;;;;1.02;0.98;;;;;;;;;;1894231;75;26318;-46
2022/05/07 08:16:20;;;;;;;0.90;0.90;;;;;;;;;;1883955;74;26716;-43
2022/05/07 08:18:45;;;;;;;1.05;1.00;;;;;;;;;;1884282;75;26378;-47
2022/05/07 08:21:13;;;;;;;0.90;0.75;;;;;;;;;;1874954;75;26881;-45
2022/05/07 08:23:41;;;;;;;0.80;0.80;;;;;;;;;;1891244;74;26394;-45
2022/05/07 08:26:09;;;;;;;0.80;0.80;;;;;;;;;;1890335;74;26323;-47
2022/05/07 08:28:37;;;;;;;0.98;0.85;;;;;;;;;;1896297;74;26848;-42
2022/05/07 08:31:05;;;;;;;1.00;0.98;;;;;;;;;;1874044;75;26254;-46
2022/05/07 08:33:33;;;;;;;1.02;1.02;;;;;;;;;;1867960;75;26323;-44
2022/05/07 08:36:01;;;;;;;0.90;0.90;;;;;;;;;;1882456;75;26864;-46
2022/05/07 08:38:28;;;;;;;0.90;0.90;;;;;;;;;;1902017;74;26347;-48
2022/05/07 08:40:56;;;;;;;1.00;0.90;;;;;;;;;;1888208;75;26276;-43
2022/05/07 08:43:23;;;;;;;1.02;0.82;;;;;;;;;;1884231;75;26805;-42
2022/05/07 08:45:51;;;;;;;0.72;0.72;;;;;;;;;;1864446;75;26217;-46
2022/05/07 08:48:19;;;;;;;0.90;0.90;;;;;;;;;;1892256;75;26427;-44
2022/05/07 08:50:47;;;;;;;1.00;0.93;;;;;;;;;;1872661;74;26259;-43
2022/05/07 08:53:14;;;;;;;0.90;0.90;;;;;;;;;;1892910;75;26278;-42
2022/05/07 08:55:42;;;;;;;0.90;0.90;;;;;;;;;;1884935;75;26811;-44
2022/05/07 08:58:10;;;;;;;0.80;0.80;;;;;;;;;;1886402;75;26356;-42
2022/05/07 09:00:38;;;;;;;0.80;0.80;;;;;;;;;;1855411;75;26351;-43
2022/05/07 09:03:06;;;;;;;0.90;0.90;;;;;;;;;;1858536;76;26674;-44
2022/05/07 09:05:35;;;;;;;0.90;0.90;;;;;;;;;;1876810;75;26317;-44
2022/05/07 09:08:03;;;;;;;1.25;0.80;;;;;;;;;;1838730;78;26644;-43
2022/05/07 09:10:34;;;;;;;0.80;0.80;;;;;;;;;;1826998;78;26393;-42
2022/05/07 09:13:14;;;;;;;0.75;0.75;;;;;;;;;;1826611;77;26277;-44
2022/05/07 09:15:52;;;;;;;0.80;0.80;;;;;;;;;;1870529;75;26710;-45
2022/05/07 09:18:20;;;;;;;0.70;0.70;;;;;;;;;;1871687;76;26263;-45
2022/05/07 09:20:55;;;;;;;0.70;0.70;;;;;;;;;;1875662;76;26594;-44
2022/05/07 09:23:23;;;;;;;0.82;0.82;;;;;;;;;;1850927;76;26301;-44
2022/05/07 09:25:51;;;;;;;0.65;0.65;;;;;;;;;;1876288;76;26353;-44
2022/05/07 09:28:28;;;;;;;0.80;0.80;;;;;;;;;;1877028;75;26681;-48
2022/05/07 09:30:56;;;;;;;0.75;0.72;;;;;;;;;;1879420;76;26278;-45
2022/05/07 09:33:36;;;;;;;1.17;0.90;;;;;;;;;;1875527;76;26266;-45
2022/05/07 09:36:12;;;;;;;0.80;0.80;;;;;;;;;;1875343;76;26873;-45
2022/05/07 09:38:40;;;;;;;0.78;0.78;;;;;;;;;;1882652;75;26227;-44
2022/05/07 09:41:07;;;;;;;0.80;0.80;;;;;;;;;;1876267;76;26266;-44
2022/05/07 09:43:34;;;;;;;1.00;1.00;;;;;;;;;;1879306;75;26241;-43
2022/05/07 09:46:02;;;;;;;1.12;1.00;;;;;;;;;;1875355;75;26274;-46
2022/05/07 09:48:30;;;;;;;1.02;1.02;;;;;;;;;;1876735;75;26259;-44
2022/05/07 09:50:58;;;;;;;2.95;1.25;;;;;;;;;;1879207;76;26629;-48
2022/05/07 09:58:56;;;;;;;1.75;1.55;;;;;;;;;;1877973;75;26472;-44
2022/05/07 10:01:34;;;;;;;3.47;1.90;;;;;;;;;;1885849;75;26395;-46
2022/05/07 10:04:05;;;;;;;1.92;1.70;;;;;;;;;;1890472;75;26332;-46
2022/05/07 10:06:33;;;;;;;4.30;2.10;;;;;;;;;;1898720;74;26623;-44
2022/05/07 10:09:10;;;;;;;3.55;1.92;;;;;;;;;;1872785;74;26276;-45
2022/05/07 10:11:38;;;;;;;4.03;2.00;;;;;;;;;;1893070;75;26576;-48
2022/05/07 10:14:06;;;;;;;3.15;1.80;;;;;;;;;;1890308;75;26791;-42
2022/05/07 10:16:33;;;;;;;2.90;2.00;;;;;;;;;;1895720;75;26304;-43
2022/05/07 10:19:10;;;;;;;3.33;2.00;;;;;;;;;;1898707;74;26274;-46
2022/05/07 10:21:38;;;;;;;2.47;2.17;;;;;;;;;;1867639;74;26338;-49
2022/05/07 10:24:05;;;;;;;5.67;2.37;;;;;;;;;;1891724;74;26257;-44
2022/05/07 10:26:41;;;;;;;2.05;1.95;;;;;;;;;;1893357;75;26699;-43
2022/05/07 10:29:10;;;;;;;2.58;1.98;;;;;;;;;;1893098;75;26199;-48
2022/05/07 10:31:44;;;;;;;2.95;2.08;;;;;;;;;;1881246;74;26247;-42
2022/05/07 10:34:12;;;;;;;1.80;1.70;;;;;;;;;;1893148;75;26262;-44
2022/05/07 10:36:40;;;;;;;2.08;1.98;;;;;;;;;;1893513;75;26762;-46
2022/05/07 10:39:08;;;;;;;2.17;1.90;;;;;;;;;;1889959;75;26301;-43
2022/05/07 10:41:37;;;;;;;2.30;1.60;;;;;;;;;;1887917;75;26254;-43
2022/05/07 10:44:06;;;;;;;2.58;1.70;;;;;;;;;;1890975;74;26282;-49
2022/05/07 10:46:38;;;;;;;1.98;1.80;;;;;;;;;;1889853;75;26274;-47
2022/05/07 10:49:06;;;;;;;1.47;1.37;;;;;;;;;;1888161;75;27397;-46
2022/05/07 10:51:34;;;;;;;1.80;1.55;;;;;;;;;;1890922;75;26775;-44
2022/05/07 10:54:04;;;;;;;1.82;1.72;;;;;;;;;;1894718;74;26731;-43
2022/05/07 10:56:32;;;;;;;1.37;1.27;;;;;;;;;;1891036;75;26277;-42
2022/05/07 10:59:00;;;;;;;2.17;1.30;;;;;;;;;;1892650;75;26328;-46
2022/05/07 11:01:28;;;;;;;1.15;1.15;;;;;;;;;;1881160;74;26299;-41
2022/05/07 11:04:07;;;;;;;1.42;1.32;;;;;;;;;;1874009;75;26267;-43
2022/05/07 11:06:45;;;;;;;1.10;1.10;;;;;;;;;;1871317;76;26255;-46
2022/05/07 11:09:16;;;;;;;1.27;1.27;;;;;;;;;;1876335;76;26301;-45
2022/05/07 11:11:44;;;;;;;1.20;1.20;;;;;;;;;;1875186;76;26564;-47
2022/05/07 11:14:13;;;;;;;1.40;1.30;;;;;;;;;;1876052;75;26356;-46
2022/05/07 11:16:43;;;;;;;1.10;1.10;;;;;;;;;;1871884;76;26758;-45
2022/05/07 11:19:11;;;;;;;1.20;1.20;;;;;;;;;;1869264;75;26786;-48
2022/05/07 11:21:40;;;;;;;1.10;1.10;;;;;;;;;;1875795;75;26883;-45
2022/05/07 11:24:07;;;;;;;1.02;1.02;;;;;;;;;;1871342;76;26271;-41
2022/05/07 11:26:35;;;;;;;1.20;1.10;;;;;;;;;;1865854;75;26312;-46
2022/05/07 11:29:03;;;;;;;1.00;1.00;;;;;;;;;;1879488;75;26255;-44
2022/05/07 11:31:32;;;;;;;1.00;1.00;;;;;;;;;;1872935;75;26315;-42
2022/05/07 11:34:01;;;;;;;0.95;0.95;;;;;;;;;;1867335;75;26263;-46
2022/05/07 11:36:29;;;;;;;1.10;1.10;;;;;;;;;;1876174;76;26279;-47
2022/05/07 11:39:00;;;;;;;1.42;1.00;;;;;;;;;;1866788;76;26273;-45
2022/05/07 11:41:27;;;;;;;0.93;0.93;;;;;;;;;;1877015;76;26247;-45
2022/05/07 11:46:54;;;;;;;0.85;0.85;;;;;;;;;;1881709;75;26345;-48
2022/05/07 11:49:34;;;;;;;0.90;0.90;;;;;;;;;;1870120;75;26274;-44
2022/05/07 11:52:05;;;;;;;0.90;0.90;;;;;;;;;;1875095;75;26238;-42
2022/05/07 11:54:32;;;;;;;0.80;0.80;;;;;;;;;;1869622;76;26280;-46
2022/05/07 11:57:00;;;;;;;0.90;0.90;;;;;;;;;;1872059;75;26242;-45
2022/05/07 11:59:28;;;;;;;0.80;0.80;;;;;;;;;;1870495;76;26278;-45
2022/05/07 12:01:55;;;;;;;0.80;0.80;;;;;;;;;;1865536;75;26317;-43
2022/05/07 12:04:24;;;;;;;0.90;0.90;;;;;;;;;;1877024;76;26239;-46
2022/05/07 12:06:57;;;;;;;0.65;0.65;;;;;;;;;;1860373;76;26319;-42
2022/05/07 12:09:26;;;;;;;0.88;0.80;;;;;;;;;;1875489;76;26364;-47
2022/05/07 12:11:55;;;;;;;0.88;0.88;;;;;;;;;;1875203;75;26312;-45
2022/05/07 12:14:22;;;;;;;0.85;0.85;;;;;;;;;;1819432;78;26351;-47
2022/05/07 12:19:35;;;;;;;1.37;0.85;;;;;;;;;;1855881;76;26363;-43
2022/05/07 12:30:19;;;;;;;0.80;0.80;;;;;;;;;;1869996;76;26801;-42
2022/05/07 12:32:48;;;;;;;0.80;0.80;;;;;;;;;;1855520;75;26215;-43
2022/05/07 12:35:15;;;;;;;0.82;0.82;;;;;;;;;;1876701;75;26299;-47
2022/05/07 12:37:42;;;;;;;0.62;0.62;;;;;;;;;;1857448;76;26267;-42
2022/05/07 12:40:12;;;;;;;0.80;0.80;;;;;;;;;;1878194;76;26638;-47
2022/05/07 12:42:39;;;;;;;0.80;0.80;;;;;;;;;;1863255;75;26313;-42
2022/05/07 12:45:08;;;;;;;0.60;0.60;;;;;;;;;;1891546;75;26552;-43
2022/05/07 12:47:36;;;;;;;1.27;0.88;;;;;;;;;;1878007;75;26259;-42
2022/05/07 12:50:04;;;;;;;0.93;0.90;;;;;;;;;;1859974;76;26296;-42
2022/05/07 12:52:32;;;;;;;0.90;0.90;;;;;;;;;;1870899;76;26251;-41
2022/05/07 12:54:59;;;;;;;0.72;0.72;;;;;;;;;;1854511;76;26281;-42
2022/05/07 12:57:27;;;;;;;0.80;0.80;;;;;;;;;;1871288;76;26344;-44
2022/05/07 12:59:54;;;;;;;2.40;0.70;;;;;;;;;;1863965;76;26710;-43
2022/05/07 13:02:22;;;;;;;1.47;0.88;;;;;;;;;;1864923;75;26325;-45
2022/05/07 13:04:49;;;;;;;0.90;0.90;;;;;;;;;;1888673;75;26340;-43
2022/05/07 13:07:16;;;;;;;2.47;0.70;;;;;;;;;;1874495;74;26253;-47
2022/05/07 13:09:44;;;;;;;0.80;0.80;;;;;;;;;;1875752;75;26831;-44
2022/05/07 13:12:13;;;;;;;0.70;0.70;;;;;;;;;;1867774;75;26697;-45
2022/05/07 13:14:41;;;;;;;1.42;0.80;;;;;;;;;;1876648;75;26799;-43
2022/05/07 13:17:08;;;;;;;0.60;0.55;;;;;;;;;;1891216;74;26337;-48
2022/05/07 13:19:35;;;;;;;0.85;0.70;;;;;;;;;;1877525;74;26676;-42
2022/05/07 13:22:04;;;;;;;0.60;0.60;;;;;;;;;;1893944;75;26781;-42
2022/05/07 13:24:31;;;;;;;0.60;0.60;;;;;;;;;;1894797;75;26899;-43
2022/05/07 13:26:59;;;;;;;0.70;0.70;;;;;;;;;;1889539;74;26261;-45
2022/05/07 13:29:28;;;;;;;0.50;0.50;;;;;;;;;;1879025;75;26311;-42
2022/05/07 13:31:58;;;;;;;0.82;0.62;;;;;;;;;;1883325;75;26310;-45
2022/05/07 13:34:26;;;;;;;0.88;0.70;;;;;;;;;;1879985;75;26703;-40
2022/05/07 13:36:54;;;;;;;0.62;0.62;;;;;;;;;;1886887;75;26340;-45
2022/05/07 13:39:21;;;;;;;0.60;0.60;;;;;;;;;;1887861;75;26336;-45
2022/05/07 13:41:49;;;;;;;0.62;0.62;;;;;;;;;;1887590;74;26407;-45
2022/05/07 13:44:16;;;;;;;0.75;0.70;;;;;;;;;;1892702;75;26266;-43
2022/05/07 13:46:44;;;;;;;0.60;0.60;;;;;;;;;;1891893;75;26282;-44
2022/05/07 13:49:11;;;;;;;0.68;0.68;;;;;;;;;;1890193;75;26770;-48
2022/05/07 13:51:38;;;;;;;1.30;0.80;;;;;;;;;;1885580;75;26638;-49
2022/05/07 13:54:06;;;;;;;1.07;0.70;;;;;;;;;;1886055;75;26302;-46
2022/05/07 13:56:33;;;;;;;2.83;1.00;;;;;;;;;;1889201;75;26360;-46
2022/05/07 13:59:00;;;;;;;3.52;1.00;;;;;;;;;;1883770;74;26320;-45
2022/05/07 14:01:28;;;;;;;3.67;0.80;;;;;;;;;;1889166;75;26327;-42
2022/05/07 14:03:55;;;;;;;3.55;0.88;;;;;;;;;;1886119;75;26351;-45
2022/05/07 14:06:22;;;;;;;2.17;0.93;;;;;;;;;;1892331;75;26239;-42
2022/05/07 14:08:50;;;;;;;3.02;0.88;;;;;;;;;;1893671;74;26254;-44
2022/05/07 14:11:17;;;;;;;3.60;0.90;;;;;;;;;;1891623;74;26823;-44
2022/05/07 14:13:45;;;;;;;2.40;0.70;;;;;;;;;;1884345;75;26270;-39
2022/05/07 14:16:12;;;;;;;2.10;0.80;;;;;;;;;;1892554;74;26751;-42
2022/05/07 14:18:39;;;;;;;1.75;0.70;;;;;;;;;;1881356;74;26829;-39
2022/05/07 14:21:06;;;;;;;1.25;0.70;;;;;;;;;;1874135;75;26796;-40
2022/05/07 14:23:34;;;;;;;0.90;0.60;;;;;;;;;;1890145;75;26301;-41
2022/05/07 14:26:01;;;;;;;1.15;0.70;;;;;;;;;;1889169;74;26268;-38
2022/05/07 14:28:30;;;;;;;1.35;0.72;;;;;;;;;;1889474;75;26961;-39
2022/05/07 14:30:58;;;;;;;0.78;0.60;;;;;;;;;;1886574;75;26276;-39
2022/05/07 14:33:25;;;;;;;2.83;0.70;;;;;;;;;;1891925;75;26350;-41
2022/05/07 14:35:52;;;;;;;1.17;0.70;;;;;;;;;;1890035;75;26243;-45
2022/05/07 14:38:20;;;;;;;1.17;0.60;;;;;;;;;;1888136;74;26920;-48
2022/05/07 14:40:49;;;;;;;0.60;0.60;;;;;;;;;;1887686;75;26281;-46
2022/05/07 14:43:16;;;;;;;0.50;0.50;;;;;;;;;;1892936;75;26340;-45
2022/05/07 14:45:44;;;;;;;0.47;0.47;;;;;;;;;;1883987;74;26712;-43
2022/05/07 14:48:11;;;;;;;1.05;0.80;;;;;;;;;;1888535;74;26266;-48
2022/05/07 14:50:38;;;;;;;0.55;0.55;;;;;;;;;;1877326;75;26263;-43
2022/05/07 14:53:06;;;;;;;0.40;0.40;;;;;;;;;;1895078;75;26290;-43
2022/05/07 14:55:33;;;;;;;0.90;0.50;;;;;;;;;;1894055;75;26509;-45
2022/05/07 14:58:04;;;;;;;0.93;0.60;;;;;;;;;;1883196;75;26238;-48
2022/05/07 15:00:31;;;;;;;0.40;0.37;;;;;;;;;;1878087;74;26332;-43
2022/05/07 15:02:58;;;;;;;0.45;0.40;;;;;;;;;;1881740;75;26383;-43
2022/05/07 15:05:25;;;;;;;0.60;0.60;;;;;;;;;;1893408;75;26347;-46
2022/05/07 15:07:53;;;;;;;1.47;0.50;;;;;;;;;;1884729;75;26355;-47
2022/05/07 15:10:38;;;;;;;0.47;0.47;;;;;;;;;;1897049;74;26278;-45
2022/05/07 15:13:05;;;;;;;0.40;0.40;;;;;;;;;;1882097;75;26740;-42
2022/05/07 15:15:33;;;;;;;0.70;0.35;;;;;;;;;;1886681;74;27159;-42
2022/05/07 15:18:00;;;;;;;0.55;0.40;;;;;;;;;;1889923;75;26316;-47
2022/05/07 15:20:27;;;;;;;1.30;0.60;;;;;;;;;;1894152;75;26312;-42
2022/05/07 15:22:55;;;;;;;0.23;0.23;;;;;;;;;;1874025;74;26241;-44
2022/05/07 15:25:22;;;;;;;0.40;0.40;;;;;;;;;;1872961;75;26799;-41
2022/05/07 15:27:49;;;;;;;0.40;0.40;;;;;;;;;;1874697;75;26820;-47